Time;durP1;ratioP1;P1;durP2;ratioP2;P2;SDS_P1;SDS_P2;PMS_P1;PMS_P2;Temp;Humidity;BMP_temperature;BMP_pressure;BME280_temperature;BME280_humidity;BME280_pressure;Samples;Min_cycle;Max_cycle;Signal;HPM_P1;HPM_P2
2023/05/19 00:01:07;;;;;;;8.45;3.70;;;9.30;99.90;;;;;;6240859;22;20068;-67
2023/05/19 00:03:39;;;;;;;9.90;3.80;;;9.30;99.90;;;;;;6240716;22;20060;-67
2023/05/19 00:06:07;;;;;;;8.70;3.78;;;9.30;99.90;;;;;;6240706;22;20103;-67
2023/05/19 00:08:34;;;;;;;10.75;4.20;;;9.30;99.90;;;;;;6241444;22;20024;-68
2023/05/19 00:11:03;;;;;;;9.88;3.53;;;9.30;99.90;;;;;;6239197;23;20091;-67
2023/05/19 00:13:29;;;;;;;8.63;4.30;;;9.30;99.90;;;;;;6239190;23;20063;-67
2023/05/19 00:15:55;;;;;;;7.18;3.95;;;9.30;99.90;;;;;;6240226;22;20470;-68
2023/05/19 00:18:21;;;;;;;8.52;4.35;;;9.20;99.90;;;;;;6240672;23;20101;-68
2023/05/19 00:20:48;;;;;;;9.18;4.35;;;9.20;99.90;;;;;;6215300;23;20056;-68
2023/05/19 00:23:14;;;;;;;7.80;3.85;;;9.20;99.90;;;;;;6240933;23;20470;-68
2023/05/19 00:25:39;;;;;;;12.05;5.55;;;9.20;99.90;;;;;;6242851;23;20051;-68
2023/05/19 00:28:05;;;;;;;11.88;4.90;;;9.20;99.90;;;;;;6242380;23;20028;-68
2023/05/19 00:30:31;;;;;;;13.90;4.80;;;9.20;99.90;;;;;;6265813;22;20042;-68
2023/05/19 00:32:57;;;;;;;11.05;4.63;;;9.20;99.90;;;;;;6242272;23;20024;-68
2023/05/19 00:35:23;;;;;;;11.80;5.38;;;9.20;99.90;;;;;;6242410;22;20020;-68
2023/05/19 00:37:49;;;;;;;6.53;4.20;;;9.10;99.90;;;;;;6240973;23;20019;-68
2023/05/19 00:40:15;;;;;;;9.30;4.82;;;9.20;99.90;;;;;;6266123;22;20344;-68
2023/05/19 00:42:43;;;;;;;7.32;4.50;;;9.20;99.90;;;;;;6242172;22;20020;-68
2023/05/19 00:45:09;;;;;;;14.50;4.72;;;9.20;99.90;;;;;;6242480;23;20023;-68
2023/05/19 00:47:35;;;;;;;11.48;5.43;;;9.20;99.90;;;;;;6242403;23;20009;-68
2023/05/19 00:50:01;;;;;;;8.13;4.03;;;9.20;99.90;;;;;;6242221;22;20710;-68
2023/05/19 00:52:27;;;;;;;12.40;4.78;;;9.20;99.90;;;;;;6242503;23;20058;-68
2023/05/19 00:54:54;;;;;;;13.25;4.85;;;9.10;99.90;;;;;;6242090;23;20753;-68
2023/05/19 00:57:20;;;;;;;7.13;4.25;;;9.20;99.90;;;;;;6240335;23;20027;-67
2023/05/19 00:59:49;;;;;;;7.65;3.85;;;9.10;99.90;;;;;;6242516;22;20018;-68
2023/05/19 01:02:15;;;;;;;9.35;4.80;;;9.10;99.90;;;;;;6240400;23;20028;-68
2023/05/19 01:04:42;;;;;;;11.45;4.93;;;9.00;99.90;;;;;;6241755;23;20046;-68
2023/05/19 01:07:09;;;;;;;12.90;4.57;;;9.10;99.90;;;;;;6240647;23;20023;-68
2023/05/19 01:09:36;;;;;;;11.43;4.38;;;9.00;99.90;;;;;;6240332;23;20074;-68
2023/05/19 01:12:02;;;;;;;9.68;4.07;;;9.00;99.90;;;;;;6241896;22;20501;-66
2023/05/19 01:14:28;;;;;;;13.82;4.68;;;9.00;99.90;;;;;;6240134;23;20016;-68
2023/05/19 01:17:08;;;;;;;10.57;4.13;;;9.10;99.90;;;;;;6241798;22;20092;-68
2023/05/19 01:19:45;;;;;;;9.73;4.97;;;9.10;99.90;;;;;;6241568;22;20055;-68
2023/05/19 01:22:41;;;;;;;9.48;4.50;;;9.10;99.90;;;;;;6240166;23;20424;-68
2023/05/19 01:25:24;;;;;;;9.40;4.80;;;9.10;99.90;;;;;;6241184;22;20042;-67
2023/05/19 01:28:24;;;;;;;13.50;5.30;;;9.10;99.90;;;;;;6240219;23;20032;-68
2023/05/19 01:30:55;;;;;;;11.73;4.88;;;9.00;99.90;;;;;;6241844;22;20024;-67
2023/05/19 01:33:22;;;;;;;8.02;4.28;;;9.00;99.90;;;;;;6241727;22;20710;-68
2023/05/19 01:35:50;;;;;;;15.15;4.57;;;9.00;99.90;;;;;;6241865;22;20530;-67
2023/05/19 01:38:17;;;;;;;11.90;4.82;;;9.00;99.90;;;;;;6241985;22;20016;-68
2023/05/19 01:40:45;;;;;;;15.05;5.18;;;9.00;99.90;;;;;;6241958;22;20028;-68
2023/05/19 01:43:19;;;;;;;13.85;6.10;;;9.00;99.90;;;;;;6241566;22;20028;-67
2023/05/19 01:45:45;;;;;;;9.32;5.18;;;9.00;99.90;;;;;;6240126;23;20066;-67
2023/05/19 01:48:12;;;;;;;13.02;4.65;;;9.00;99.90;;;;;;6239734;23;20412;-68
2023/05/19 01:50:39;;;;;;;11.27;5.07;;;8.90;99.90;;;;;;6240031;23;20026;-67
2023/05/19 01:53:05;;;;;;;10.43;4.38;;;8.90;99.90;;;;;;6239668;23;20030;-68
2023/05/19 01:55:31;;;;;;;11.00;4.75;;;8.80;99.90;;;;;;6241547;23;20059;-68
2023/05/19 01:58:16;;;;;;;10.77;5.82;;;8.80;99.90;;;;;;6241735;23;20020;-68
2023/05/19 02:00:52;;;;;;;12.10;4.80;;;8.80;99.90;;;;;;6241379;22;20020;-68
2023/05/19 02:03:53;;;;;;;11.45;5.13;;;8.80;99.90;;;;;;6241629;22;20016;-67
2023/05/19 02:06:31;;;;;;;14.23;6.22;;;8.80;99.90;;;;;;6193787;23;20387;-68
2023/05/19 02:09:20;;;;;;;20.38;5.93;;;8.80;99.90;;;;;;6240751;23;20020;-68
2023/05/19 02:11:54;;;;;;;9.82;5.47;;;8.80;99.90;;;;;;6196836;22;20027;-68
2023/05/19 02:14:28;;;;;;;15.02;5.18;;;8.70;99.90;;;;;;6239755;23;20023;-68
2023/05/19 02:16:57;;;;;;;13.48;5.43;;;8.80;99.90;;;;;;6240921;22;20027;-67
2023/05/19 02:19:25;;;;;;;10.05;5.00;;;8.70;99.90;;;;;;6241632;22;20015;-68
2023/05/19 02:21:51;;;;;;;11.98;5.55;;;8.70;99.90;;;;;;6239466;23;20024;-68
2023/05/19 02:24:21;;;;;;;9.25;5.15;;;8.70;99.90;;;;;;6241164;22;20325;-67
2023/05/19 02:26:49;;;;;;;14.75;6.05;;;8.70;99.90;;;;;;6239315;23;20127;-68
2023/05/19 02:29:15;;;;;;;9.38;5.00;;;8.70;99.90;;;;;;6239015;23;20016;-68
2023/05/19 02:31:40;;;;;;;12.82;5.32;;;8.70;99.90;;;;;;6240874;22;20460;-67
2023/05/19 02:34:07;;;;;;;9.73;4.90;;;8.70;99.90;;;;;;6241578;23;20030;-67
2023/05/19 02:36:35;;;;;;;14.18;6.00;;;8.70;99.90;;;;;;6239543;23;20027;-67
2023/05/19 02:39:02;;;;;;;12.85;5.43;;;8.60;99.90;;;;;;6239565;23;20047;-68
2023/05/19 02:41:28;;;;;;;11.68;5.72;;;8.60;99.90;;;;;;6241631;22;20024;-68
2023/05/19 02:43:53;;;;;;;11.82;5.38;;;8.60;99.90;;;;;;6265118;22;20020;-67
2023/05/19 02:46:19;;;;;;;9.43;4.70;;;8.60;99.90;;;;;;6241524;22;20023;-67
2023/05/19 02:48:45;;;;;;;7.78;4.85;;;8.50;99.90;;;;;;6241678;22;20026;-68
2023/05/19 02:51:10;;;;;;;15.25;5.57;;;8.60;99.90;;;;;;6264936;22;20031;-67
2023/05/19 02:53:36;;;;;;;9.32;4.93;;;8.50;99.90;;;;;;6241152;23;20467;-67
2023/05/19 02:56:02;;;;;;;14.50;5.38;;;8.50;99.90;;;;;;6239375;23;20020;-66
2023/05/19 02:58:28;;;;;;;9.95;4.63;;;8.50;99.90;;;;;;6213968;23;20024;-67
2023/05/19 03:00:54;;;;;;;11.00;5.50;;;8.40;99.90;;;;;;6240994;22;20019;-68
2023/05/19 03:03:20;;;;;;;12.18;5.97;;;8.40;99.90;;;;;;6241239;22;20031;-68
2023/05/19 03:05:47;;;;;;;9.88;5.35;;;8.40;99.90;;;;;;6240939;22;20762;-68
2023/05/19 03:08:12;;;;;;;10.50;5.65;;;8.30;99.90;;;;;;6239089;23;20024;-68
2023/05/19 03:10:38;;;;;;;13.85;4.90;;;8.30;99.90;;;;;;6264607;22;20028;-68
2023/05/19 03:13:04;;;;;;;11.30;5.43;;;8.30;99.90;;;;;;6239038;23;20052;-67
2023/05/19 03:15:30;;;;;;;14.20;5.35;;;8.30;99.90;;;;;;6238724;23;20026;-68
2023/05/19 03:17:56;;;;;;;10.75;5.60;;;8.30;99.90;;;;;;6264760;22;20452;-68
2023/05/19 03:20:21;;;;;;;13.50;4.80;;;8.40;99.90;;;;;;6241242;22;20020;-68
2023/05/19 03:22:47;;;;;;;10.25;5.35;;;8.20;99.90;;;;;;6264696;22;20027;-68
2023/05/19 03:25:13;;;;;;;9.13;5.45;;;8.20;99.90;;;;;;6239776;23;20016;-68
2023/05/19 03:27:38;;;;;;;9.93;5.80;;;8.20;99.90;;;;;;6239317;23;20020;-68
2023/05/19 03:30:05;;;;;;;12.40;5.30;;;8.20;99.90;;;;;;6238759;23;20012;-68
2023/05/19 03:32:36;;;;;;;13.70;5.82;;;8.20;99.90;;;;;;6239549;23;20099;-68
2023/05/19 03:35:04;;;;;;;9.88;5.22;;;8.20;99.90;;;;;;6241133;22;20107;-68
2023/05/19 03:37:29;;;;;;;12.95;4.95;;;8.10;99.90;;;;;;6241156;22;20020;-68
2023/05/19 03:39:56;;;;;;;13.68;6.07;;;8.20;99.90;;;;;;6239088;23;20086;-68
2023/05/19 03:42:22;;;;;;;9.43;5.32;;;8.10;99.90;;;;;;6238764;23;20031;-68
2023/05/19 03:44:47;;;;;;;8.70;4.93;;;8.10;99.90;;;;;;6263919;22;20024;-68
2023/05/19 03:47:13;;;;;;;11.57;5.20;;;8.00;99.90;;;;;;6264548;22;20077;-68
2023/05/19 03:49:39;;;;;;;13.57;5.20;;;8.10;99.90;;;;;;6264667;22;20095;-67
2023/05/19 03:52:08;;;;;;;12.85;5.50;;;8.20;99.90;;;;;;6239734;23;20462;-68
2023/05/19 03:54:34;;;;;;;7.75;5.03;;;8.10;99.90;;;;;;6242514;22;20022;-68
2023/05/19 03:57:01;;;;;;;8.13;5.95;;;8.10;99.90;;;;;;6241066;23;20082;-68
2023/05/19 03:59:27;;;;;;;13.90;5.43;;;8.10;99.90;;;;;;6240640;23;20027;-68
2023/05/19 04:01:53;;;;;;;12.90;5.95;;;8.00;99.90;;;;;;6240614;23;20024;-67
2023/05/19 04:04:18;;;;;;;10.00;5.28;;;8.00;99.90;;;;;;6240969;23;20016;-68
2023/05/19 04:06:44;;;;;;;10.93;5.30;;;8.00;99.90;;;;;;6266374;22;20074;-68
2023/05/19 04:09:12;;;;;;;10.50;5.65;;;8.10;99.90;;;;;;6242494;23;20012;-68
2023/05/19 04:11:41;;;;;;;12.50;5.80;;;8.10;99.90;;;;;;6242807;22;20043;-67
2023/05/19 04:14:07;;;;;;;12.15;5.50;;;8.20;99.90;;;;;;6241143;23;20027;-68
2023/05/19 04:16:33;;;;;;;9.70;5.65;;;8.10;99.90;;;;;;6242549;23;20024;-68
2023/05/19 04:18:59;;;;;;;11.05;6.07;;;8.20;99.90;;;;;;6242635;22;20023;-68
2023/05/19 04:21:26;;;;;;;12.32;5.32;;;8.20;99.90;;;;;;6242676;22;20020;-68
2023/05/19 04:23:51;;;;;;;10.55;5.15;;;8.20;99.90;;;;;;6242602;22;20203;-68
2023/05/19 04:26:20;;;;;;;9.82;5.97;;;8.30;99.90;;;;;;6242159;22;20064;-68
2023/05/19 04:28:47;;;;;;;10.05;5.35;;;8.40;99.90;;;;;;6240612;23;20023;-68
2023/05/19 04:31:13;;;;;;;12.43;5.70;;;8.50;99.90;;;;;;6240360;23;20019;-67
2023/05/19 04:33:40;;;;;;;17.00;6.35;;;8.50;99.90;;;;;;6242564;22;20091;-68
2023/05/19 04:36:10;;;;;;;12.73;5.97;;;8.50;99.90;;;;;;6242244;22;20020;-67
2023/05/19 04:38:36;;;;;;;14.52;6.43;;;8.60;99.90;;;;;;6242032;22;20076;-68
2023/05/19 04:41:03;;;;;;;16.00;6.00;;;8.70;99.90;;;;;;6240255;23;20056;-67
2023/05/19 04:43:28;;;;;;;13.88;6.20;;;8.80;99.90;;;;;;6242419;22;20016;-67
2023/05/19 04:45:56;;;;;;;18.75;6.80;;;9.00;99.90;;;;;;6240343;23;20046;-67
2023/05/19 04:48:22;;;;;;;11.15;5.80;;;9.10;99.90;;;;;;6242087;22;20030;-66
2023/05/19 04:50:50;;;;;;;12.55;5.85;;;9.20;99.90;;;;;;6242546;22;20020;-67
2023/05/19 04:53:16;;;;;;;10.90;5.90;;;9.30;99.90;;;;;;6240446;23;20738;-67
2023/05/19 04:55:43;;;;;;;11.57;6.82;;;9.40;99.90;;;;;;6242232;22;20016;-67
2023/05/19 04:58:08;;;;;;;10.50;6.70;;;9.60;99.90;;;;;;6242331;22;20149;-67
2023/05/19 05:00:35;;;;;;;8.50;6.40;;;9.70;99.90;;;;;;6240122;23;20067;-67
2023/05/19 05:03:03;;;;;;;16.10;6.40;;;9.80;99.90;;;;;;6241636;22;20016;-67
2023/05/19 05:05:30;;;;;;;9.93;5.43;;;9.90;99.90;;;;;;6241980;22;20016;-67
2023/05/19 05:07:56;;;;;;;12.00;5.55;;;10.00;99.90;;;;;;6240384;23;20023;-67
2023/05/19 05:10:22;;;;;;;9.60;6.07;;;10.10;99.90;;;;;;6240064;23;20030;-66
2023/05/19 05:12:48;;;;;;;11.18;5.57;;;10.20;99.90;;;;;;6265705;22;20055;-67
2023/05/19 05:15:14;;;;;;;16.48;6.30;;;10.40;99.90;;;;;;6241644;22;20024;-67
2023/05/19 05:17:40;;;;;;;8.93;5.70;;;10.40;99.90;;;;;;6241699;22;20023;-67
2023/05/19 05:20:06;;;;;;;13.70;6.22;;;10.50;99.90;;;;;;6239320;23;20020;-67
2023/05/19 05:22:33;;;;;;;13.35;5.82;;;10.50;99.90;;;;;;6240019;23;20016;-67
2023/05/19 05:25:00;;;;;;;13.48;6.03;;;10.50;99.90;;;;;;6241516;22;20012;-67
2023/05/19 05:27:25;;;;;;;9.93;5.90;;;10.60;99.90;;;;;;6241998;22;20012;-67
2023/05/19 05:29:52;;;;;;;11.18;5.53;;;10.70;99.90;;;;;;6239649;23;20070;-67
2023/05/19 05:32:21;;;;;;;10.95;5.88;;;10.80;99.90;;;;;;6241887;22;20089;-67
2023/05/19 05:34:46;;;;;;;11.10;6.38;;;10.80;99.90;;;;;;6239806;23;20028;-67
2023/05/19 05:37:12;;;;;;;12.20;5.30;;;10.90;99.90;;;;;;6241077;22;20123;-67
2023/05/19 05:39:38;;;;;;;6.70;5.18;;;11.00;99.90;;;;;;6241019;23;20351;-68
2023/05/19 05:42:04;;;;;;;8.55;5.68;;;11.10;99.90;;;;;;6239419;23;20024;-67
2023/05/19 05:44:29;;;;;;;12.55;5.07;;;11.00;99.90;;;;;;6264926;22;20023;-67
2023/05/19 05:46:55;;;;;;;8.48;5.07;;;11.00;99.90;;;;;;6265201;22;20027;-67
2023/05/19 05:49:21;;;;;;;10.40;4.93;;;11.20;99.90;;;;;;6239107;23;20020;-67
2023/05/19 05:51:47;;;;;;;11.70;5.30;;;11.20;99.90;;;;;;6239441;23;20121;-67
2023/05/19 05:54:16;;;;;;;11.40;4.90;;;11.20;99.90;;;;;;6240729;22;20024;-67
2023/05/19 05:56:41;;;;;;;10.73;4.68;;;11.40;99.90;;;;;;6239334;23;20028;-67
2023/05/19 05:59:07;;;;;;;8.13;4.82;;;11.50;99.90;;;;;;6238822;23;20086;-67
2023/05/19 06:01:34;;;;;;;6.90;4.63;;;11.70;99.90;;;;;;6263846;22;20020;-68
2023/05/19 06:04:00;;;;;;;6.78;4.25;;;11.80;99.90;;;;;;6240267;22;20316;-67
2023/05/19 06:06:26;;;;;;;10.98;4.53;;;11.80;99.90;;;;;;6240544;23;20102;-67
2023/05/19 06:08:51;;;;;;;7.93;4.40;;;11.90;99.90;;;;;;6239486;23;20020;-67
2023/05/19 06:11:18;;;;;;;11.27;4.50;;;12.00;99.90;;;;;;6240212;23;20622;-68
2023/05/19 06:13:44;;;;;;;9.02;4.70;;;12.00;99.90;;;;;;6239284;23;20016;-68
2023/05/19 06:16:09;;;;;;;8.23;4.30;;;12.20;99.90;;;;;;6240338;22;20087;-67
2023/05/19 06:18:35;;;;;;;7.47;4.32;;;12.20;99.90;;;;;;6240795;22;20078;-67
2023/05/19 06:21:02;;;;;;;11.48;4.55;;;12.30;99.90;;;;;;6263548;22;20039;-67
2023/05/19 06:23:29;;;;;;;11.77;4.38;;;12.40;99.90;;;;;;6238698;23;20095;-67
2023/05/19 06:25:55;;;;;;;6.47;3.97;;;12.40;99.90;;;;;;6241082;22;20035;-67
2023/05/19 06:28:21;;;;;;;8.00;3.97;;;12.40;99.90;;;;;;6240536;23;20418;-67
2023/05/19 06:30:47;;;;;;;7.72;4.35;;;12.40;99.90;;;;;;6240317;23;20028;-67
2023/05/19 06:33:12;;;;;;;5.90;3.70;;;12.60;99.90;;;;;;6240835;22;20027;-68
2023/05/19 06:35:38;;;;;;;7.40;4.00;;;12.70;99.90;;;;;;6240303;23;20078;-67
2023/05/19 06:38:04;;;;;;;8.32;5.20;;;12.60;99.90;;;;;;6264757;22;20448;-71
2023/05/19 06:40:30;;;;;;;7.82;3.95;;;12.70;99.90;;;;;;6242032;22;20474;-68
2023/05/19 06:42:55;;;;;;;9.27;4.72;;;12.70;99.90;;;;;;6264159;22;20039;-69
2023/05/19 06:45:22;;;;;;;9.95;4.15;;;12.70;99.90;;;;;;6240758;22;20016;-68
2023/05/19 06:47:48;;;;;;;7.75;4.22;;;12.80;99.90;;;;;;6240794;22;20360;-68
2023/05/19 06:50:14;;;;;;;9.50;4.43;;;12.80;99.90;;;;;;6241150;23;20055;-68
2023/05/19 06:52:40;;;;;;;6.85;4.13;;;12.90;99.90;;;;;;6213611;23;20019;-69
2023/05/19 06:55:06;;;;;;;8.73;4.13;;;13.00;99.90;;;;;;6241151;23;20715;-69
2023/05/19 06:57:31;;;;;;;7.13;4.18;;;13.00;99.90;;;;;;6240459;23;20351;-70
2023/05/19 06:59:57;;;;;;;7.57;4.40;;;13.10;99.90;;;;;;6241540;22;20020;-73
2023/05/19 07:02:23;;;;;;;12.07;4.40;;;13.20;99.90;;;;;;6265151;22;20487;-72
2023/05/19 07:04:51;;;;;;;6.82;4.38;;;13.20;99.90;;;;;;6241531;22;20012;-76
2023/05/19 07:07:17;;;;;;;9.75;4.30;;;13.30;99.90;;;;;;6238699;23;20064;-71
2023/05/19 07:09:43;;;;;;;9.80;3.75;;;13.30;99.90;;;;;;6240795;22;20050;-68
2023/05/19 07:12:08;;;;;;;9.07;5.07;;;13.40;99.90;;;;;;6264517;22;20020;-68
2023/05/19 07:14:35;;;;;;;10.00;5.07;;;13.40;99.90;;;;;;6240439;23;20035;-71
2023/05/19 07:17:01;;;;;;;7.82;4.38;;;13.70;99.90;;;;;;6240438;22;20028;-70
2023/05/19 07:19:26;;;;;;;11.23;4.20;;;13.70;99.90;;;;;;6240315;23;20042;-68
2023/05/19 07:21:53;;;;;;;9.23;4.30;;;13.80;99.90;;;;;;6240440;23;20032;-70
2023/05/19 07:24:20;;;;;;;8.45;3.90;;;13.80;99.90;;;;;;6240848;22;20026;-71
2023/05/19 07:26:46;;;;;;;7.30;3.80;;;13.80;99.90;;;;;;6239429;23;20074;-68
2023/05/19 07:29:11;;;;;;;4.95;3.20;;;13.80;99.90;;;;;;6240774;23;20016;-67
2023/05/19 07:31:37;;;;;;;10.25;4.70;;;13.90;99.90;;;;;;6265779;22;20130;-67
2023/05/19 07:34:03;;;;;;;8.75;3.92;;;13.90;99.90;;;;;;6239937;23;20439;-67
2023/05/19 07:36:29;;;;;;;6.03;3.90;;;13.90;99.90;;;;;;6240313;23;20055;-67
2023/05/19 07:38:54;;;;;;;9.23;3.38;;;14.00;99.90;;;;;;6242451;23;20023;-67
2023/05/19 07:41:21;;;;;;;6.32;3.13;;;14.10;99.90;;;;;;6215705;23;20024;-67
2023/05/19 07:43:48;;;;;;;5.93;3.40;;;14.20;99.90;;;;;;6242927;22;20027;-66
2023/05/19 07:46:14;;;;;;;6.70;3.60;;;14.10;99.90;;;;;;6241229;23;20020;-67
2023/05/19 07:48:40;;;;;;;7.28;2.20;;;14.10;99.90;;;;;;6243127;22;20008;-66
2023/05/19 07:51:09;;;;;;;6.20;2.10;;;14.30;99.90;;;;;;6243072;22;20024;-66
2023/05/19 07:53:37;;;;;;;6.63;2.38;;;14.30;99.90;;;;;;6239212;23;20031;-67
2023/05/19 07:56:07;;;;;;;6.32;2.60;;;14.50;99.90;;;;;;6242682;22;20399;-67
2023/05/19 07:58:34;;;;;;;7.82;2.20;;;14.50;99.90;;;;;;6240996;23;20024;-67
2023/05/19 08:00:59;;;;;;;6.78;1.95;;;14.50;99.90;;;;;;6240949;23;20360;-67
2023/05/19 08:03:25;;;;;;;5.70;2.38;;;14.60;99.90;;;;;;6215509;23;20016;-67
2023/05/19 08:05:51;;;;;;;7.55;2.22;;;14.70;99.90;;;;;;6242081;22;20400;-67
2023/05/19 08:08:18;;;;;;;5.80;2.63;;;14.80;99.90;;;;;;6240668;23;20099;-67
2023/05/19 08:10:45;;;;;;;7.22;2.30;;;14.70;99.90;;;;;;6240949;23;20020;-67
2023/05/19 08:13:13;;;;;;;5.95;2.63;;;14.80;99.90;;;;;;6242228;22;20439;-67
2023/05/19 08:15:39;;;;;;;5.70;2.53;;;14.90;99.90;;;;;;6242327;22;20410;-67
2023/05/19 08:18:05;;;;;;;5.75;1.67;;;15.00;99.90;;;;;;6242384;22;20016;-67
2023/05/19 08:20:31;;;;;;;8.23;2.60;;;15.10;99.90;;;;;;6266354;22;20028;-67
2023/05/19 08:22:57;;;;;;;5.97;2.10;;;15.20;99.90;;;;;;6242439;22;20047;-67
2023/05/19 08:25:22;;;;;;;4.65;1.90;;;15.40;99.90;;;;;;6243196;22;20052;-67
2023/05/19 08:27:48;;;;;;;5.55;2.85;;;15.40;99.90;;;;;;6242464;22;20020;-67
2023/05/19 08:30:14;;;;;;;8.65;2.25;;;15.30;99.90;;;;;;6241928;23;20027;-67
2023/05/19 08:32:40;;;;;;;4.00;1.92;;;15.30;99.90;;;;;;6240225;23;20012;-67
2023/05/19 08:35:06;;;;;;;4.70;2.60;;;15.30;99.90;;;;;;6242163;22;20016;-67
2023/05/19 08:37:32;;;;;;;7.47;2.30;;;15.40;99.90;;;;;;6240411;23;20016;-67
2023/05/19 08:39:58;;;;;;;5.53;2.67;;;15.40;99.90;;;;;;6240329;23;20031;-67
2023/05/19 08:42:26;;;;;;;6.55;2.30;;;15.40;99.90;;;;;;6264731;22;20020;-67
2023/05/19 08:45:07;;;;;;;11.90;2.53;;;15.40;99.90;;;;;;6238223;23;20128;-67
2023/05/19 08:47:33;;;;;;;8.88;2.72;;;15.50;99.90;;;;;;6212930;23;20024;-67
2023/05/19 08:50:17;;;;;;;7.05;2.63;;;15.60;99.90;;;;;;6213166;23;20079;-66
2023/05/19 08:52:51;;;;;;;5.20;2.20;;;15.60;99.90;;;;;;6235439;23;20074;-67
2023/05/19 08:55:32;;;;;;;8.60;1.95;;;15.60;99.90;;;;;;6238463;23;20031;-67
2023/05/19 08:58:05;;;;;;;3.58;1.42;;;15.70;99.90;;;;;;6238619;23;20028;-67
2023/05/19 09:00:31;;;;;;;;;;;15.70;99.90;;;;;;6213658;23;20110;-67
2023/05/19 09:02:59;;;;;;;4.50;1.42;;;15.70;99.90;;;;;;6212915;23;20353;-67
2023/05/19 09:05:25;;;;;;;6.07;2.05;;;15.80;99.90;;;;;;6212966;23;20016;-67
2023/05/19 09:07:50;;;;;;;4.45;1.48;;;15.90;99.90;;;;;;6238490;23;20020;-67
2023/05/19 09:10:16;;;;;;;5.22;2.00;;;15.90;99.90;;;;;;6238487;23;20023;-67
2023/05/19 09:12:44;;;;;;;11.02;2.00;;;15.90;99.90;;;;;;6213142;23;20038;-67
2023/05/19 09:15:11;;;;;;;5.68;1.98;;;16.00;99.90;;;;;;6213154;23;20119;-67
2023/05/19 09:17:38;;;;;;;7.40;1.98;;;16.00;99.90;;;;;;6241556;22;20409;-66
2023/05/19 09:20:09;;;;;;;4.35;2.30;;;16.10;99.90;;;;;;6239730;23;20470;-66
2023/05/19 09:22:46;;;;;;;6.80;2.03;;;16.10;99.90;;;;;;6239798;23;20075;-67
2023/05/19 09:25:25;;;;;;;5.43;2.10;;;16.10;99.90;;;;;;6214729;23;20058;-67
2023/05/19 09:27:53;;;;;;;3.83;2.28;;;16.10;99.90;;;;;;6214562;23;20139;-67
2023/05/19 09:30:19;;;;;;;6.35;2.10;;;16.20;99.90;;;;;;6241453;22;20082;-67
2023/05/19 09:32:45;;;;;;;4.95;1.88;;;16.20;99.90;;;;;;6241631;22;20016;-67
2023/05/19 09:35:12;;;;;;;5.28;1.60;;;16.40;99.90;;;;;;6241739;22;20095;-68
2023/05/19 09:37:41;;;;;;;4.70;2.42;;;16.30;99.90;;;;;;6241536;22;20464;-67
2023/05/19 09:40:14;;;;;;;7.43;2.28;;;16.30;99.90;;;;;;6239704;23;20094;-67
2023/05/19 09:42:41;;;;;;;11.15;2.47;;;16.40;99.90;;;;;;6189358;23;20108;-67
2023/05/19 09:45:08;;;;;;;4.95;1.77;;;16.50;99.90;;;;;;6239140;23;20056;-68
2023/05/19 09:47:38;;;;;;;4.55;1.90;;;16.40;99.90;;;;;;6241428;22;20024;-67
2023/05/19 09:50:09;;;;;;;7.45;1.90;;;16.50;99.90;;;;;;6239521;23;20043;-67
2023/05/19 09:52:39;;;;;;;5.28;2.10;;;16.60;99.90;;;;;;6239646;23;20487;-67
2023/05/19 09:55:11;;;;;;;7.20;1.80;;;16.70;99.90;;;;;;6241461;22;20095;-66
2023/05/19 09:57:39;;;;;;;4.10;1.52;;;16.50;99.90;;;;;;6239551;23;20028;-66
2023/05/19 10:00:16;;;;;;;6.45;1.70;;;16.70;99.90;;;;;;6240976;22;20016;-66
2023/05/19 10:02:47;;;;;;;4.70;1.80;;;16.70;99.90;;;;;;6239749;23;20485;-66
2023/05/19 10:05:18;;;;;;;7.45;1.90;;;16.70;99.90;;;;;;6241362;22;20020;-66
2023/05/19 10:07:53;;;;;;;4.10;2.17;;;16.70;99.90;;;;;;6241263;22;20078;-66
2023/05/19 10:10:19;;;;;;;5.75;3.13;;;16.90;99.90;;;;;;6240937;22;20024;-66
2023/05/19 10:12:46;;;;;;;5.95;1.80;;;16.80;99.90;;;;;;6241465;22;20023;-66
2023/05/19 10:15:14;;;;;;;4.22;1.85;;;16.90;99.90;;;;;;6240945;22;20023;-66
2023/05/19 10:17:41;;;;;;;7.53;2.83;;;17.00;99.90;;;;;;6241473;22;20360;-67
2023/05/19 10:20:09;;;;;;;4.75;2.10;;;16.90;99.90;;;;;;6238947;23;20050;-66
2023/05/19 10:22:36;;;;;;;9.15;2.45;;;16.90;99.70;;;;;;6240795;22;20033;-66
2023/05/19 10:25:02;;;;;;;8.75;2.22;;;16.90;99.90;;;;;;6241005;22;20083;-66
2023/05/19 10:27:30;;;;;;;4.05;1.77;;;17.00;99.90;;;;;;6239340;23;20027;-66
2023/05/19 10:29:59;;;;;;;6.78;1.90;;;17.00;99.90;;;;;;6240167;22;20026;-66
2023/05/19 10:32:29;;;;;;;2.70;1.30;;;17.00;99.90;;;;;;6241268;23;20087;-67
2023/05/19 10:35:25;;;;;;;11.70;2.35;;;17.10;99.90;;;;;;6240870;22;20012;-67
2023/05/19 10:38:09;;;;;;;3.63;1.63;;;17.30;99.90;;;;;;6240939;22;20023;-66
2023/05/19 10:41:15;;;;;;;5.75;2.25;;;17.60;99.90;;;;;;6240910;22;20016;-66
2023/05/19 10:43:49;;;;;;;5.18;1.75;;;17.60;99.50;;;;;;6240989;22;20024;-66
2023/05/19 10:46:15;;;;;;;7.88;2.38;;;17.60;99.50;;;;;;6264745;22;20024;-67
2023/05/19 11:06:50;;;;;;;7.90;1.70;;;17.70;97.50;;;;;;6269765;22;20536;-66
2023/05/19 11:09:20;;;;;;;5.10;1.67;;;17.70;99.00;;;;;;6269798;22;20031;-66
2023/05/19 11:11:49;;;;;;;4.70;2.03;;;17.70;98.90;;;;;;6244229;22;20126;-66
2023/05/19 11:14:21;;;;;;;5.10;1.80;;;17.60;99.00;;;;;;6271125;22;20015;-66
2023/05/19 11:16:49;;;;;;;5.57;2.00;;;17.60;98.70;;;;;;6271746;22;20070;-67
2023/05/19 11:19:28;;;;;;;3.88;1.60;;;17.70;99.30;;;;;;6271862;22;20023;-67
2023/05/19 11:22:10;;;;;;;9.87;2.30;;;17.60;97.50;;;;;;6270006;22;20027;-67
2023/05/19 11:24:49;;;;;;;7.78;1.88;;;17.70;99.30;;;;;;6270252;22;20339;-67
2023/05/19 11:27:26;;;;;;;6.75;1.48;;;17.80;98.60;;;;;;6269754;22;20061;-67
2023/05/19 11:29:54;;;;;;;5.88;1.50;;;17.80;98.50;;;;;;6271354;22;20023;-67
2023/05/19 11:32:21;;;;;;;5.78;1.70;;;17.90;98.40;;;;;;6271782;22;20385;-67
2023/05/19 11:34:48;;;;;;;6.50;1.73;;;17.90;97.50;;;;;;6271511;22;20012;-67
2023/05/19 11:37:15;;;;;;;3.08;1.55;;;17.80;98.10;;;;;;6270274;22;20024;-67
2023/05/19 11:39:40;;;;;;;7.90;1.65;;;17.80;97.00;;;;;;6271275;22;20016;-67
2023/05/19 11:42:10;;;;;;;6.95;2.00;;;17.60;97.30;;;;;;6268959;22;20078;-67
2023/05/19 11:44:37;;;;;;;3.83;1.52;;;17.70;97.10;;;;;;6271055;22;20022;-67
2023/05/19 11:47:04;;;;;;;5.22;1.50;;;17.80;98.20;;;;;;6269462;22;20073;-67
2023/05/19 11:49:29;;;;;;;4.65;1.73;;;17.80;98.10;;;;;;6269452;22;20066;-68
2023/05/19 11:51:56;;;;;;;7.63;1.83;;;17.90;97.20;;;;;;6271252;22;20524;-67
2023/05/19 11:54:30;;;;;;;6.53;2.00;;;17.90;96.70;;;;;;6269467;22;20026;-68
2023/05/19 11:56:56;;;;;;;4.88;1.95;;;17.90;96.20;;;;;;6271128;22;20760;-67
2023/05/19 11:59:36;;;;;;;5.18;1.98;;;17.90;96.60;;;;;;6244030;22;20051;-67
2023/05/19 12:02:24;;;;;;;5.93;1.77;;;18.00;96.30;;;;;;6271841;22;20058;-67
2023/05/19 12:04:51;;;;;;;7.43;1.58;;;18.20;95.10;;;;;;6270753;22;20031;-67
2023/05/19 12:07:24;;;;;;;3.85;1.98;;;18.20;95.50;;;;;;6271515;22;20030;-67
2023/05/19 12:09:51;;;;;;;3.35;1.33;;;18.20;95.80;;;;;;6244159;22;20012;-67
2023/05/19 12:12:19;;;;;;;3.83;1.70;;;18.20;96.90;;;;;;6269512;22;20030;-67
2023/05/19 12:14:46;;;;;;;8.50;1.58;;;18.20;96.30;;;;;;6271692;22;20141;-67
2023/05/19 12:17:13;;;;;;;4.68;1.80;;;18.30;97.50;;;;;;6271198;22;20023;-67
2023/05/19 12:19:40;;;;;;;4.88;1.75;;;18.50;96.90;;;;;;6271360;22;20043;-69
2023/05/19 12:22:07;;;;;;;3.17;1.48;;;18.40;96.10;;;;;;6271278;22;20027;-69
2023/05/19 12:24:35;;;;;;;4.63;1.60;;;18.30;96.90;;;;;;6273582;22;20343;-69
2023/05/19 12:27:06;;;;;;;4.32;1.75;;;18.20;96.00;;;;;;6271520;22;20089;-69
2023/05/19 12:29:31;;;;;;;4.95;1.50;;;18.20;96.40;;;;;;6271027;22;20489;-69
2023/05/19 12:31:57;;;;;;;5.35;1.92;;;18.20;97.20;;;;;;6272861;22;20024;-69
2023/05/19 12:34:23;;;;;;;3.92;1.90;;;18.20;97.40;;;;;;6273474;22;20027;-69
2023/05/19 12:36:49;;;;;;;8.15;1.70;;;18.30;97.10;;;;;;6273344;22;20435;-70
2023/05/19 12:39:17;;;;;;;4.18;1.80;;;18.50;97.70;;;;;;6273123;22;20146;-69
2023/05/19 12:41:46;;;;;;;3.03;1.42;;;18.70;96.50;;;;;;6271184;22;20474;-69
2023/05/19 12:44:15;;;;;;;3.08;1.60;;;18.60;95.70;;;;;;6273028;22;20015;-70
2023/05/19 12:46:42;;;;;;;6.15;2.20;;;18.50;96.00;;;;;;6272909;22;20015;-69
2023/05/19 12:49:08;;;;;;;5.43;1.75;;;18.60;94.80;;;;;;6272913;22;20019;-69
2023/05/19 12:51:35;;;;;;;5.15;1.70;;;18.70;94.80;;;;;;6270743;22;20348;-70
2023/05/19 12:54:03;;;;;;;4.57;1.80;;;19.10;95.60;;;;;;6272432;22;20030;-70
2023/05/19 12:56:29;;;;;;;7.40;2.08;;;19.00;94.50;;;;;;6245218;22;20073;-70
2023/05/19 12:58:54;;;;;;;5.18;1.88;;;19.00;95.50;;;;;;6270409;22;20016;-70
2023/05/19 13:01:21;;;;;;;3.58;1.80;;;19.00;93.70;;;;;;6272660;22;20023;-69
2023/05/19 13:03:47;;;;;;;3.17;1.98;;;19.00;94.50;;;;;;6270803;22;20029;-70
2023/05/19 13:06:13;;;;;;;6.80;2.22;;;19.00;95.20;;;;;;6270521;22;20050;-69
2023/05/19 13:08:40;;;;;;;7.55;2.08;;;18.90;95.10;;;;;;6270215;22;20023;-70
2023/05/19 13:11:06;;;;;;;7.05;1.83;;;18.80;93.90;;;;;;6272228;22;20114;-70